createdAt,value
2018-02-21T00:01:48.119Z,36.70
2018-02-21T00:04:15.728Z,34.30
2018-02-21T00:06:43.470Z,35.75
2018-02-21T00:09:10.887Z,44.13
2018-02-21T00:11:38.456Z,39.15
2018-02-21T00:14:06.007Z,36.13
2018-02-21T00:16:34.198Z,39.05
2018-02-21T00:19:01.627Z,43.70
2018-02-21T00:21:29.070Z,34.47
2018-02-21T00:23:56.492Z,37.90
2018-02-21T00:26:24.045Z,36.50
2018-02-21T00:28:51.480Z,37.10
2018-02-21T00:31:18.902Z,34.85
2018-02-21T00:33:46.429Z,35.25
2018-02-21T00:36:13.859Z,30.98
2018-02-21T00:38:41.345Z,36.38
2018-02-21T00:41:08.864Z,39.10
2018-02-21T00:43:36.553Z,35.78
2018-02-21T00:46:03.999Z,32.28
2018-02-21T00:48:31.436Z,35.63
2018-02-21T00:50:58.857Z,31.75
2018-02-21T00:53:26.288Z,35.22
2018-02-21T00:55:53.830Z,32.00
2018-02-21T00:58:21.284Z,34.15
2018-02-21T01:00:48.920Z,33.30
2018-02-21T01:03:16.372Z,36.53
2018-02-21T01:05:43.953Z,37.20
2018-02-21T01:08:11.389Z,30.75
2018-02-21T01:10:38.819Z,35.40
2018-02-21T01:13:06.246Z,32.58
2018-02-21T01:15:34.627Z,31.83
2018-02-21T01:18:02.076Z,32.17
2018-02-21T01:20:29.616Z,33.15
2018-02-21T01:22:57.084Z,39.40
2018-02-21T01:25:24.522Z,36.95
2018-02-21T01:27:52.003Z,37.40
2018-02-21T01:30:19.768Z,32.42
2018-02-21T01:32:47.516Z,33.28
2018-02-21T01:35:15.285Z,32.63
2018-02-21T01:37:42.729Z,34.42
2018-02-21T01:40:10.165Z,34.45
2018-02-21T01:42:37.652Z,30.25
2018-02-21T01:45:05.076Z,26.58
2018-02-21T01:47:32.512Z,28.62
2018-02-21T01:49:59.936Z,36.10
2018-02-21T01:52:27.380Z,38.58
2018-02-21T01:54:54.928Z,35.00
2018-02-21T01:57:22.577Z,34.70
2018-02-21T01:59:49.998Z,37.28
2018-02-21T02:02:18.217Z,38.03
2018-02-21T02:04:45.988Z,39.38
2018-02-21T02:07:13.438Z,41.80
2018-02-21T02:09:41.088Z,43.92
2018-02-21T02:12:08.560Z,47.50
2018-02-21T02:14:36.024Z,48.13
2018-02-21T02:17:03.491Z,46.00
2018-02-21T02:19:31.028Z,43.95
2018-02-21T02:21:58.668Z,50.47
2018-02-21T02:24:26.250Z,51.55
2018-02-21T02:26:53.900Z,52.20
2018-02-21T02:29:21.460Z,54.47
2018-02-21T02:31:48.931Z,46.63
2018-02-21T02:34:16.690Z,53.45
2018-02-21T02:36:44.126Z,48.05
2018-02-21T02:39:23.281Z,52.60
2018-02-21T02:41:50.814Z,55.70
2018-02-21T02:44:18.360Z,59.58
2018-02-21T02:46:45.838Z,63.13
2018-02-21T02:49:13.256Z,54.95
2018-02-21T02:51:41.787Z,56.67
2018-02-21T02:54:09.237Z,61.35
2018-02-21T02:56:36.691Z,54.47
2018-02-21T02:59:04.126Z,60.33
2018-02-21T03:01:31.612Z,57.45
2018-02-21T03:03:59.376Z,54.88
2018-02-21T03:06:26.836Z,58.30
2018-02-21T03:08:54.280Z,58.42
2018-02-21T03:11:21.735Z,56.00
2018-02-21T03:13:49.202Z,47.85
2018-02-21T03:16:16.823Z,61.10
2018-02-21T03:18:44.331Z,50.47
2018-02-21T03:21:11.754Z,62.55
2018-02-21T03:23:39.332Z,55.38
2018-02-21T03:26:07.799Z,57.08
2018-02-21T03:28:35.336Z,54.75
2018-02-21T03:31:02.769Z,53.28
2018-02-21T03:33:30.966Z,54.53
2018-02-21T03:35:58.404Z,54.38
2018-02-21T03:38:25.828Z,58.20
2018-02-21T03:40:53.275Z,59.45
2018-02-21T03:43:20.732Z,48.20
2018-02-21T03:45:48.580Z,55.63
2018-02-21T03:48:16.016Z,60.83
2018-02-21T03:50:43.441Z,59.15
2018-02-21T03:53:11.640Z,64.25
2018-02-21T03:55:39.336Z,58.17
2018-02-21T03:58:06.769Z,57.80
2018-02-21T04:00:34.204Z,58.80
2018-02-21T04:03:01.634Z,57.55
2018-02-21T04:05:29.078Z,53.95
2018-02-21T04:07:56.518Z,58.47
2018-02-21T04:10:23.959Z,64.93
2018-02-21T04:12:51.396Z,58.92
2018-02-21T04:15:18.815Z,62.67
2018-02-21T04:17:46.347Z,67.32
2018-02-21T04:20:13.801Z,57.47
2018-02-21T04:22:41.252Z,62.13
2018-02-21T04:25:08.700Z,62.25
2018-02-21T04:27:36.267Z,63.58
2018-02-21T04:30:03.704Z,53.47
2018-02-21T04:32:31.216Z,68.53
2018-02-21T04:34:58.636Z,60.88
2018-02-21T04:37:26.096Z,58.20
2018-02-21T04:39:53.532Z,56.40
2018-02-21T04:42:20.955Z,66.82
2018-02-21T04:44:48.384Z,68.20
2018-02-21T04:47:15.820Z,58.72
2018-02-21T04:49:43.364Z,61.60
2018-02-21T04:52:11.756Z,57.60
2018-02-21T04:54:44.956Z,57.45
2018-02-21T04:57:18.024Z,62.17
2018-02-21T05:13:07.008Z,58.03
2018-02-21T05:15:34.428Z,63.85
2018-02-21T05:18:01.861Z,56.85
2018-02-21T05:20:29.297Z,58.55
2018-02-21T05:22:56.811Z,68.22
2018-02-21T05:25:24.233Z,66.50
2018-02-21T05:27:52.009Z,60.72
2018-02-21T05:30:19.441Z,68.70
2018-02-21T05:32:46.860Z,71.95
2018-02-21T05:35:14.394Z,65.78
2018-02-21T05:37:41.833Z,68.53
2018-02-21T05:40:09.272Z,63.55
2018-02-21T05:42:36.704Z,67.82
2018-02-21T05:45:04.223Z,59.03
2018-02-21T05:47:31.858Z,65.05
2018-02-21T05:49:59.284Z,66.80
2018-02-21T05:52:27.538Z,65.47
2018-02-21T05:54:55.260Z,64.80
2018-02-21T05:57:22.730Z,59.60
2018-02-21T05:59:50.388Z,63.58
2018-02-21T06:02:17.804Z,69.95
2018-02-21T06:04:45.422Z,73.25
2018-02-21T06:07:12.848Z,58.13
2018-02-21T06:09:40.274Z,61.95
2018-02-21T06:12:07.759Z,64.35
2018-02-21T06:14:35.394Z,69.00
2018-02-21T06:17:02.869Z,62.08
2018-02-21T06:19:30.746Z,68.80
2018-02-21T06:21:58.209Z,71.05
2018-02-21T06:24:25.648Z,68.32
2018-02-21T06:26:53.314Z,70.00
2018-02-21T06:29:21.492Z,61.10
2018-02-21T06:31:48.919Z,73.07
2018-02-21T06:34:16.404Z,66.40
2018-02-21T06:36:43.856Z,70.80
2018-02-21T06:39:11.298Z,66.72
2018-02-21T06:41:38.762Z,60.85
2018-02-21T06:44:06.182Z,62.53
2018-02-21T06:46:33.603Z,61.35
2018-02-21T06:49:01.176Z,62.50
2018-02-21T06:51:28.567Z,69.68
2018-02-21T06:53:56.060Z,62.62
2018-02-21T06:56:23.494Z,61.50
2018-02-21T06:58:50.932Z,70.90
2018-02-21T07:01:18.368Z,71.37
2018-02-21T07:03:45.885Z,66.12
2018-02-21T07:06:13.325Z,78.55
2018-02-21T07:08:40.752Z,69.25
2018-02-21T07:11:08.192Z,66.28
2018-02-21T07:13:36.380Z,72.00
2018-02-21T07:16:04.584Z,69.40
2018-02-21T07:18:32.018Z,64.47
2018-02-21T07:20:59.452Z,60.45
2018-02-21T07:23:27.655Z,63.05
2018-02-21T07:25:55.085Z,72.65
2018-02-21T07:28:22.592Z,62.70
2018-02-21T07:30:50.037Z,64.62
2018-02-21T07:33:17.470Z,71.62
2018-02-21T07:35:44.896Z,70.30
2018-02-21T07:38:12.333Z,78.60
2018-02-21T07:40:39.757Z,64.50
2018-02-21T07:43:07.328Z,66.22
2018-02-21T07:45:34.784Z,65.90
2018-02-21T07:48:02.322Z,68.50
2018-02-21T07:50:30.005Z,71.85
2018-02-21T07:52:57.460Z,64.32
2018-02-21T07:55:24.894Z,69.93
2018-02-21T07:57:52.317Z,60.20
2018-02-21T08:00:19.831Z,70.43
2018-02-21T08:02:47.291Z,60.95
2018-02-21T08:05:14.715Z,62.70
2018-02-21T08:07:42.196Z,62.75
2018-02-21T08:10:09.656Z,58.15
2018-02-21T08:12:37.293Z,67.07
2018-02-21T08:15:04.781Z,56.15
2018-02-21T08:17:32.220Z,60.78
2018-02-21T08:19:59.643Z,68.60
2018-02-21T08:22:28.036Z,64.57
2018-02-21T08:24:55.624Z,62.10
2018-02-21T08:27:23.263Z,63.05
2018-02-21T08:29:50.685Z,53.92
2018-02-21T08:32:18.912Z,54.08
2018-02-21T08:34:46.549Z,55.63
2018-02-21T08:37:14.128Z,53.70
2018-02-21T08:39:41.557Z,49.97
2018-02-21T08:42:09.047Z,56.13
2018-02-21T08:44:36.496Z,49.63
2018-02-21T08:47:03.942Z,56.22
2018-02-21T08:49:31.365Z,53.65
2018-02-21T08:51:58.808Z,53.00
2018-02-21T08:54:27.248Z,57.25
2018-02-21T08:56:55.012Z,57.17
2018-02-21T08:59:22.649Z,56.50
2018-02-21T09:01:50.232Z,53.80
2018-02-21T09:04:17.661Z,54.92
2018-02-21T09:06:45.093Z,58.35
2018-02-21T09:09:12.600Z,50.67
2018-02-21T09:11:40.029Z,55.00
2018-02-21T09:14:07.477Z,57.33
2018-02-21T09:16:35.030Z,56.35
2018-02-21T09:19:02.425Z,55.90
2018-02-21T09:21:29.857Z,62.28
2018-02-21T09:23:57.301Z,55.90
2018-02-21T09:26:24.718Z,53.97
2018-02-21T09:28:52.151Z,51.28
2018-02-21T09:31:19.708Z,53.58
2018-02-21T09:33:47.365Z,52.13
2018-02-21T09:36:14.924Z,56.15
2018-02-21T09:38:42.566Z,59.13
2018-02-21T09:41:10.174Z,50.45
2018-02-21T09:43:37.609Z,55.33
2018-02-21T09:46:05.052Z,47.67
2018-02-21T09:48:32.485Z,60.65
2018-02-21T09:50:59.923Z,51.08
2018-02-21T09:53:27.425Z,48.47
2018-02-21T09:55:55.188Z,55.35
2018-02-21T09:58:22.989Z,48.80
2018-02-21T10:00:50.720Z,49.45
2018-02-21T10:03:18.149Z,56.70
2018-02-21T10:05:45.580Z,47.33
2018-02-21T10:08:13.012Z,41.37
2018-02-21T10:10:40.480Z,45.72
2018-02-21T10:13:08.001Z,49.08
2018-02-21T10:15:35.463Z,42.83
2018-02-21T10:18:02.900Z,48.58
2018-02-21T10:20:30.336Z,50.88
2018-02-21T10:22:57.775Z,43.65
2018-02-21T10:25:25.216Z,46.15
2018-02-21T10:27:52.666Z,39.88
2018-02-21T10:30:20.192Z,49.78
2018-02-21T10:32:47.832Z,42.08
2018-02-21T10:35:15.287Z,44.17
2018-02-21T10:37:42.728Z,42.97
2018-02-21T10:40:10.229Z,44.00
2018-02-21T10:42:37.698Z,41.58
2018-02-21T10:45:05.245Z,41.83
2018-02-21T10:47:32.690Z,37.50
2018-02-21T10:50:00.152Z,42.33
2018-02-21T10:52:27.609Z,38.97
2018-02-21T10:54:55.372Z,45.12
2018-02-21T10:57:23.004Z,42.77
2018-02-21T10:59:50.468Z,41.43
2018-02-21T11:02:17.955Z,39.67
2018-02-21T11:04:45.408Z,43.30
2018-02-21T11:07:12.957Z,39.30
2018-02-21T11:09:40.432Z,37.70
2018-02-21T11:12:08.045Z,41.33
2018-02-21T11:14:35.535Z,37.70
2018-02-21T11:17:02.969Z,41.37
2018-02-21T11:19:30.700Z,45.40
2018-02-21T11:21:58.313Z,38.20
2018-02-21T11:24:25.940Z,40.37
2018-02-21T11:26:53.400Z,39.53
2018-02-21T11:29:20.864Z,37.40
2018-02-21T11:31:48.462Z,35.37
2018-02-21T11:34:15.884Z,34.37
2018-02-21T11:36:43.312Z,40.97
2018-02-21T11:39:10.737Z,34.20
2018-02-21T11:41:39.200Z,32.20
2018-02-21T11:44:06.650Z,32.00
2018-02-21T11:46:34.255Z,31.40
2018-02-21T11:49:02.486Z,38.70
2018-02-21T11:51:29.937Z,29.50
2018-02-21T11:53:57.368Z,33.13
2018-02-21T11:56:24.818Z,35.13
2018-02-21T11:58:52.249Z,32.23
2018-02-21T12:01:19.688Z,33.60
2018-02-21T12:03:47.134Z,35.13
2018-02-21T12:06:14.682Z,28.83
2018-02-21T12:08:42.303Z,32.60
2018-02-21T12:11:09.892Z,28.00
2018-02-21T12:13:37.536Z,30.70
2018-02-21T12:16:05.136Z,31.83
2018-02-21T12:18:32.568Z,33.40
2018-02-21T12:21:00.334Z,33.67
2018-02-21T12:23:27.788Z,33.50
2018-02-21T12:25:55.248Z,35.17
2018-02-21T12:28:22.701Z,31.63
2018-02-21T12:30:50.135Z,28.27
2018-02-21T12:33:17.593Z,32.47
2018-02-21T12:35:45.111Z,29.33
2018-02-21T12:38:12.669Z,32.20
2018-02-21T12:40:45.795Z,29.47
2018-02-21T12:43:13.228Z,32.70
2018-02-21T12:45:40.848Z,28.93
2018-02-21T12:48:08.527Z,30.40
2018-02-21T12:50:36.318Z,26.97
2018-02-21T12:53:04.069Z,28.63
2018-02-21T12:55:31.820Z,30.70
2018-02-21T12:57:59.258Z,29.13
2018-02-21T13:00:26.718Z,26.30
2018-02-21T13:02:54.187Z,26.07
2018-02-21T13:05:21.612Z,29.47
2018-02-21T13:07:49.376Z,28.07
2018-02-21T13:10:16.825Z,28.30
2018-02-21T13:12:44.241Z,26.90
2018-02-21T13:15:11.677Z,31.83
2018-02-21T13:17:39.104Z,32.00
2018-02-21T13:20:06.652Z,29.13
2018-02-21T13:22:34.092Z,29.60
2018-02-21T13:25:01.568Z,26.50
2018-02-21T13:27:29.028Z,28.53
2018-02-21T13:29:56.804Z,28.60
2018-02-21T13:32:24.272Z,31.90
2018-02-21T13:34:52.529Z,31.33
2018-02-21T13:37:20.088Z,29.40
2018-02-21T13:39:47.716Z,28.47
2018-02-21T13:42:15.282Z,24.43
2018-02-21T13:44:42.759Z,25.20
2018-02-21T13:47:10.192Z,25.33
2018-02-21T13:49:37.620Z,21.43
2018-02-21T13:52:05.132Z,23.30
2018-02-21T13:54:32.788Z,24.13
2018-02-21T13:57:00.342Z,26.40
2018-02-21T13:59:27.768Z,22.93
2018-02-21T14:01:55.236Z,23.00
2018-02-21T14:04:22.660Z,23.03
2018-02-21T14:06:50.100Z,23.10
2018-02-21T14:09:17.538Z,23.10
2018-02-21T14:11:45.076Z,23.20
2018-02-21T14:14:12.531Z,21.93
2018-02-21T14:16:41.224Z,22.93
2018-02-21T14:19:08.869Z,24.30
2018-02-21T14:21:36.316Z,26.43
2018-02-21T14:24:03.809Z,24.10
2018-02-21T14:26:31.265Z,22.63
2018-02-21T14:28:58.830Z,24.13
2018-02-21T14:31:26.293Z,22.47
2018-02-21T14:33:53.740Z,25.83
2018-02-21T14:36:21.184Z,24.03
2018-02-21T14:38:48.655Z,23.10
2018-02-21T14:41:16.084Z,23.40
2018-02-21T14:43:43.530Z,23.90
2018-02-21T14:46:10.948Z,22.73
2018-02-21T14:48:38.370Z,22.80
2018-02-21T14:51:05.919Z,24.30
2018-02-21T14:53:33.345Z,22.10
2018-02-21T14:56:00.787Z,23.03
2018-02-21T14:58:28.294Z,23.27
2018-02-21T15:00:55.920Z,23.43
2018-02-21T15:03:23.505Z,28.10
2018-02-21T15:05:50.968Z,21.23
2018-02-21T15:08:18.538Z,20.07
2018-02-21T15:10:46.185Z,19.87
2018-02-21T15:13:13.613Z,21.37
2018-02-21T15:15:41.049Z,21.80
2018-02-21T15:18:08.476Z,21.40
2018-02-21T15:20:35.908Z,20.77
2018-02-21T15:23:03.345Z,22.87
2018-02-21T15:25:30.868Z,21.60
2018-02-21T15:27:58.379Z,24.20
2018-02-21T15:30:25.821Z,21.00
2018-02-21T15:32:53.240Z,21.40
2018-02-21T15:35:20.766Z,18.83
2018-02-21T15:37:48.185Z,26.43
2018-02-21T15:40:15.599Z,23.67
2018-02-21T15:42:43.032Z,21.60
2018-02-21T15:45:11.577Z,23.30
2018-02-21T15:47:38.949Z,22.80
2018-02-21T15:50:06.382Z,23.63
2018-02-21T15:52:33.804Z,22.03
2018-02-21T15:55:01.322Z,23.23
2018-02-21T15:57:28.961Z,27.03
2018-02-21T15:59:56.417Z,23.17
2018-02-21T16:02:23.855Z,25.40
2018-02-21T16:04:51.361Z,21.43
2018-02-21T16:07:18.820Z,22.43
2018-02-21T16:09:46.273Z,24.03
2018-02-21T16:12:13.827Z,21.87
2018-02-21T16:14:41.281Z,26.03
2018-02-21T16:17:08.911Z,24.07
2018-02-21T16:19:36.432Z,22.37
2018-02-21T16:22:03.952Z,23.97
2018-02-21T16:24:31.588Z,26.47
2018-02-21T16:26:59.044Z,23.57
2018-02-21T16:29:26.501Z,22.50
2018-02-21T16:31:53.952Z,26.10
2018-02-21T16:34:21.405Z,25.67
2018-02-21T16:36:48.914Z,25.23
2018-02-21T16:39:17.373Z,24.50
2018-02-21T16:41:44.805Z,25.20
2018-02-21T16:44:12.249Z,27.03
2018-02-21T16:46:39.676Z,26.37
2018-02-21T16:49:07.111Z,25.87
2018-02-21T16:51:34.569Z,25.60
2018-02-21T16:54:07.581Z,20.47
2018-02-21T16:56:35.012Z,23.30
2018-02-21T16:59:02.548Z,24.40
2018-02-21T17:01:29.976Z,28.87
2018-02-21T17:03:57.452Z,23.40
2018-02-21T17:06:24.920Z,22.40
2018-02-21T17:08:52.368Z,26.10
2018-02-21T17:11:19.805Z,25.73
2018-02-21T17:13:47.233Z,28.45
2018-02-21T17:16:14.742Z,26.27
2018-02-21T17:18:42.216Z,24.77
2018-02-21T17:21:09.655Z,23.35
2018-02-21T17:23:37.101Z,24.85
2018-02-21T17:26:04.516Z,21.50
2018-02-21T17:28:31.944Z,26.12
2018-02-21T17:30:59.401Z,22.35
2018-02-21T17:33:26.952Z,28.17
2018-02-21T17:35:54.389Z,22.62
2018-02-21T17:38:21.822Z,27.33
2018-02-21T17:40:54.832Z,23.73
2018-02-21T17:43:22.295Z,26.67
2018-02-21T17:45:49.743Z,19.10
2018-02-21T17:48:17.204Z,24.00
2018-02-21T17:50:44.859Z,18.70
2018-02-21T17:53:12.410Z,23.02
2018-02-21T17:55:39.882Z,20.80
2018-02-21T17:58:07.327Z,26.67
2018-02-21T18:00:34.796Z,21.87
2018-02-21T18:03:02.234Z,21.15
2018-02-21T18:05:29.744Z,25.75
2018-02-21T18:07:57.296Z,24.25
2018-02-21T18:10:24.728Z,25.08
2018-02-21T18:12:52.417Z,33.60
2018-02-21T18:15:20.152Z,27.67
2018-02-21T18:17:47.595Z,28.38
2018-02-21T18:20:15.025Z,31.75
2018-02-21T18:22:42.448Z,33.50
2018-02-21T18:25:09.989Z,46.92
2018-02-21T18:27:37.614Z,54.65
2018-02-21T18:30:05.148Z,45.03
2018-02-21T18:32:32.572Z,21.33
2018-02-21T18:35:00.020Z,25.20
2018-02-21T18:37:27.474Z,22.40
2018-02-21T18:39:54.949Z,24.77
2018-02-21T18:42:22.408Z,23.25
2018-02-21T18:44:49.840Z,24.23
2018-02-21T18:47:17.281Z,23.55
2018-02-21T18:49:44.848Z,26.17
2018-02-21T18:52:12.288Z,22.15
2018-02-21T18:54:39.719Z,25.60
2018-02-21T18:57:07.172Z,31.10
2018-02-21T18:59:34.623Z,22.87
2018-02-21T19:02:02.082Z,28.50
2018-02-21T19:04:29.499Z,28.27
2018-02-21T19:06:56.940Z,26.37
2018-02-21T19:09:24.373Z,27.95
2018-02-21T19:11:51.848Z,25.17
2018-02-21T19:14:19.287Z,26.37
2018-02-21T19:16:46.860Z,24.52
2018-02-21T19:19:14.296Z,28.02
2018-02-21T19:21:41.720Z,25.85
2018-02-21T19:24:10.142Z,27.15
2018-02-21T19:26:37.552Z,28.87
2018-02-21T19:29:05.013Z,25.42
2018-02-21T19:31:32.592Z,27.60
2018-02-21T19:34:00.284Z,30.45
2018-02-21T19:36:27.921Z,28.45
2018-02-21T19:38:55.500Z,24.27
2018-02-21T19:41:22.938Z,26.55
2018-02-21T19:43:50.414Z,29.50
2018-02-21T19:46:17.841Z,33.33
2018-02-21T19:48:45.328Z,23.92
2018-02-21T19:51:12.808Z,28.35
2018-02-21T19:53:40.540Z,27.92
2018-02-21T19:56:08.008Z,25.48
2018-02-21T19:58:35.481Z,29.33
2018-02-21T20:01:02.920Z,29.83
2018-02-21T20:03:30.374Z,29.33
2018-02-21T20:08:53.792Z,25.45
2018-02-21T20:11:21.216Z,28.95
2018-02-21T20:13:48.642Z,28.55
2018-02-21T20:16:16.080Z,26.12
2018-02-21T20:18:43.502Z,24.58
2018-02-21T20:21:10.931Z,30.23
2018-02-21T20:23:38.499Z,29.83
2018-02-21T20:26:05.959Z,28.08
2018-02-21T20:28:33.412Z,29.65
2018-02-21T20:31:00.843Z,35.72
2018-02-21T20:33:28.272Z,30.52
2018-02-21T20:35:55.704Z,32.92
2018-02-21T20:38:23.161Z,33.42
2018-02-21T20:40:50.620Z,30.05
2018-02-21T20:43:18.148Z,30.65
2018-02-21T20:45:45.610Z,36.53
2018-02-21T20:48:13.059Z,34.45
2018-02-21T20:50:40.526Z,30.65
2018-02-21T20:53:07.942Z,30.17
2018-02-21T20:55:35.432Z,28.98
2018-02-21T20:58:02.862Z,35.60
2018-02-21T21:00:33.613Z,36.78
2018-02-21T21:03:01.124Z,33.17
2018-02-21T21:05:28.642Z,34.38
2018-02-21T21:07:56.111Z,36.20
2018-02-21T21:10:23.731Z,36.10
2018-02-21T21:12:51.312Z,34.08
2018-02-21T21:15:18.800Z,40.12
2018-02-21T21:17:46.232Z,41.92
2018-02-21T21:20:13.988Z,35.78
2018-02-21T21:22:41.451Z,34.25
2018-02-21T21:25:08.880Z,34.45
2018-02-21T21:27:36.308Z,36.08
2018-02-21T21:30:03.748Z,30.25
2018-02-21T21:32:31.187Z,33.05
2018-02-21T21:34:58.647Z,38.35
2018-02-21T21:37:26.213Z,37.33
2018-02-21T21:39:53.811Z,37.15
2018-02-21T21:42:21.280Z,38.08
2018-02-21T21:44:49.058Z,34.70
2018-02-21T21:47:16.537Z,40.55
2018-02-21T21:49:44.094Z,36.00
2018-02-21T21:52:11.712Z,33.90
2018-02-21T21:54:39.168Z,36.20
2018-02-21T21:57:06.759Z,35.25
2018-02-21T21:59:34.175Z,34.88
2018-02-21T22:02:01.612Z,37.13
2018-02-21T22:04:29.094Z,35.95
2018-02-21T22:06:56.586Z,32.22
2018-02-21T22:09:24.116Z,39.38
2018-02-21T22:11:51.684Z,38.78
2018-02-21T22:14:19.212Z,39.17
2018-02-21T22:16:46.692Z,37.25
2018-02-21T22:19:14.116Z,36.17
2018-02-21T22:21:41.617Z,37.17
2018-02-21T22:24:09.080Z,34.63
2018-02-21T22:26:36.512Z,36.78
2018-02-21T22:29:03.992Z,37.55
2018-02-21T22:31:31.423Z,35.90
2018-02-21T22:33:58.860Z,38.78
2018-02-21T22:36:26.291Z,41.70
2018-02-21T22:38:53.723Z,37.80
2018-02-21T22:41:21.272Z,41.58
2018-02-21T22:43:48.728Z,39.33
2018-02-21T22:46:16.160Z,37.17
2018-02-21T22:48:43.587Z,39.33
2018-02-21T22:51:11.095Z,36.20
2018-02-21T22:53:38.520Z,38.47
2018-02-21T22:56:05.944Z,36.38
2018-02-21T22:58:33.464Z,34.28
2018-02-21T23:01:00.923Z,36.80
2018-02-21T23:03:28.461Z,46.47
2018-02-21T23:05:56.068Z,38.17
2018-02-21T23:08:23.514Z,36.95
2018-02-21T23:10:51.692Z,38.67
2018-02-21T23:13:19.304Z,31.50
2018-02-21T23:15:46.887Z,33.45
2018-02-21T23:18:14.321Z,43.25
2018-02-21T23:20:41.746Z,42.47
2018-02-21T23:23:09.174Z,42.47
2018-02-21T23:25:36.620Z,34.50
2018-02-21T23:28:04.088Z,40.38
2018-02-21T23:30:31.510Z,40.38
2018-02-21T23:32:58.988Z,36.90
2018-02-21T23:35:26.553Z,42.33
2018-02-21T23:37:54.299Z,40.80
2018-02-21T23:40:21.735Z,40.30
2018-02-21T23:42:49.216Z,42.70
2018-02-21T23:45:16.673Z,37.25
2018-02-21T23:47:44.104Z,40.17
2018-02-21T23:50:11.759Z,38.00
2018-02-21T23:52:39.188Z,40.30
2018-02-21T23:55:06.676Z,40.75
2018-02-21T23:57:34.260Z,38.35
